Flight Track Log - Related Links

Times and Time Zones

All times are in EST time to prevent confusion due to time zone crossing. See the CNS128 flight status page for this flight to view local times or setup timezone preferences in your user account.

Time Position Orientation Groundspeed Altitude Reporting Facility
EST Latitude Longitude Course Direction KTS MPH feet Rate Location/Type
Wed 05:12:09 PM 42.3667 -71.0000 236° Southwest 79 91 600  Level KA90
Wed 05:13:16 PM 42.3500 -71.0333 236° Southwest 123 142 2,500 1,263 Climbing KA90
Wed 05:14:03 PM 42.3333 -71.0833 246° West 163 188 3,000 471 Climbing KA90
Wed 05:14:58 PM 42.3000 -71.1333 228° Southwest 205 236 3,300 1,304 Climbing KA90
Wed 05:15:58 PM 42.2833 -71.1833 246° West 146 168 5,500 1,350 Climbing KA90
Wed 05:16:58 PM 42.2500 -71.2333 228° Southwest 176 203 6,000 696 Climbing KA90
Wed 05:18:16 PM 42.2167 -71.3167 242° Southwest 198 228 7,100 1,179 Climbing KA90
Wed 05:18:55 PM 42.2008 -71.3492 237° Southwest 171 197 8,300 1,839 Climbing Boston Center
Wed 05:19:18 PM 42.2019 -71.3689 274° West 153 176 9,000 1,475 Climbing Boston Center
Wed 05:19:56 PM 42.1997 -71.4008 265° West 136 157 9,800 885 Climbing Boston Center
Wed 05:20:19 PM 42.1997 -71.4211 270° West 141 162 9,900 179 Climbing Boston Center
Wed 05:21:03 PM 42.2011 -71.4736 272° West 177 204 10,000 97 Climbing Boston Center
Wed 05:21:21 PM 42.2019 -71.4917 274° West 170 196 10,000  Level Boston Center
Wed 05:21:57 PM 42.2017 -71.5403 270° West 197 227 10,000  Level Boston Center
Wed 05:22:22 PM 42.2017 -71.5669 270° West 197 227 10,000  Level Boston Center
Wed 05:22:58 PM 42.2022 -71.6156 271° West 202 232 10,000  Level Boston Center
Wed 05:23:23 PM 42.2003 -71.6428 265° West 201 231 10,000  Level Boston Center
Wed 05:23:59 PM 42.1889 -71.6861 250° West 203 234 10,000  Level Boston Center
Wed 05:24:25 PM 42.1817 -71.7183 253° West 199 229 10,000  Level Boston Center
Wed 05:25:00 PM 42.1708 -71.7581 250° West 205 236 10,000  Level Boston Center
Wed 05:25:26 PM 42.1653 -71.7914 257° West 203 234 10,000  Level Boston Center
Wed 05:26:01 PM 42.1550 -71.8308 251° West 203 234 10,000  Level Boston Center
Wed 05:26:27 PM 42.1475 -71.8644 253° West 205 236 10,000  Level Boston Center
Wed 05:27:01 PM 42.1369 -71.9025 250° West 204 235 10,000  Level Boston Center
Wed 05:27:29 PM 42.1292 -71.9369 253° West 206 237 10,000  Level Boston Center
Wed 05:28:14 PM 42.1131 -71.9925 249° West 205 236 10,000  Level Boston Center
Wed 05:28:30 PM 42.1067 -72.0133 248° West 205 236 10,000  Level Boston Center
Wed 05:29:09 PM 42.0847 -72.0492 230° Southwest 208 239 10,000  Level Boston Center
Wed 05:29:31 PM 42.0669 -72.0706 222° Southwest 217 250 10,000  Level Boston Center
Wed 05:30:04 PM 42.0431 -72.0983 221° Southwest 215 247 10,000  Level Boston Center
Wed 05:30:33 PM 42.0217 -72.1236 221° Southwest 216 249 10,000  Level Boston Center
Wed 05:31:11 PM 41.9900 -72.1606 221° Southwest 214 246 10,000  Level Boston Center
Wed 05:31:34 PM 41.9719 -72.1800 219° Southwest 218 251 10,000  Level Boston Center
Wed 05:32:11 PM 41.9436 -72.2106 219° Southwest 219 252 10,000  Level Boston Center
Wed 05:32:35 PM 41.9258 -72.2325 223° Southwest 218 251 10,000  Level Boston Center
Wed 05:33:18 PM 41.8936 -72.2681 219° Southwest 217 250 10,000  Level Boston Center
Wed 05:33:37 PM 41.8794 -72.2842 220° Southwest 216 249 10,000  Level Boston Center
Wed 05:34:13 PM 41.8517 -72.3167 221° Southwest 213 245 10,000  Level Boston Center
Wed 05:34:38 PM 41.8344 -72.3367 221° Southwest 215 247 10,000  Level Boston Center
Wed 05:35:13 PM 41.8047 -72.3694 219° Southwest 218 251 10,000 -197 Level Boston Center
Wed 05:35:39 PM 41.7831 -72.3925 218° Southwest 221 254 9,800 -590 Descending Boston Center
Wed 05:36:14 PM 41.7625 -72.4294 233° Southwest 230 265 9,400 -677 Descending Boston Center
Wed 05:36:41 PM 41.7464 -72.4617 236° Southwest 228 262 9,100 -689 Descending Boston Center
Wed 05:37:15 PM 41.7269 -72.5003 236° Southwest 224 258 8,700 -787 Descending Boston Center
Wed 05:37:42 PM 41.7117 -72.5308 236° Southwest 223 257 8,300 -700 Descending Boston Center
Wed 05:38:15 PM 41.6911 -72.5711 236° Southwest 224 258 8,000 -290 Descending Boston Center
Wed 05:38:44 PM 41.6772 -72.5992 236° Southwest 220 253 8,000  Level Boston Center
Wed 05:39:45 PM 41.6408 -72.6692 235° Southwest 213 245 8,000 -146 Level Boston Center
Wed 05:40:47 PM 41.6075 -72.7347 236° Southwest 213 245 7,700 -488 Descending Boston Center
Wed 05:41:48 PM 41.5722 -72.8039 236° Southwest 223 257 7,000 -639 Descending Boston Center
Wed 05:42:49 PM 41.5367 -72.8719 235° Southwest 224 258 6,400 -488 Descending Boston Center
Wed 05:43:51 PM 41.5033 -72.9478 240° Southwest 219 252 6,000 -195 Descending Boston Center
Wed 05:44:52 PM 41.4789 -73.0203 246° West 214 246 6,000  Level Boston Center
Wed 05:45:54 PM 41.4528 -73.0950 245° Southwest 222 255 6,000  Level Boston Center
Wed 05:46:55 PM 41.4272 -73.1672 245° Southwest 216 249 6,000  Level Boston Center
Wed 05:47:56 PM 41.4011 -73.2417 245° Southwest 208 239 6,000  Level Boston Center
Wed 05:48:58 PM 41.3750 -73.3131 244° Southwest 214 246 6,000  Level Boston Center
Wed 05:49:59 PM 41.3500 -73.3850 245° Southwest 208 239 6,000  Level Boston Center
Wed 05:51:00 PM 41.3247 -73.4564 245° Southwest 212 244 6,000 -341 Level Boston Center
Wed 05:52:02 PM 41.2981 -73.5306 244° Southwest 220 253 5,300 -780 Descending Boston Center
Wed 05:53:03 PM 41.2764 -73.6125 251° West 219 252 4,400 -639 Descending Boston Center
Wed 05:54:04 PM 41.2706 -73.6878 264° West 207 238 4,000 -195 Descending Boston Center
Wed 05:55:06 PM 41.2622 -73.7664 262° West 213 245 4,000  Level Boston Center
Wed 05:56:07 PM 41.2556 -73.8431 263° West 210 242 4,000  Level Boston Center
Wed 05:57:08 PM 41.2472 -73.9258 262° West 211 243 4,000  Level Boston Center
Wed 05:58:10 PM 41.2397 -74.0031 263° West 211 243 4,000  Level Boston Center
Wed 05:59:21 PM 41.2333 -74.1000 265° West 205 236 4,000  Level New York TRACON
Wed 06:00:21 PM 41.2167 -74.1667 252° West 218 251 4,000  Level New York TRACON
Wed 06:01:21 PM 41.1833 -74.2333 236° Southwest 221 254 4,000  Level New York TRACON
Wed 06:02:21 PM 41.1333 -74.2833 217° Southwest 234 269 4,000  Level New York TRACON
Wed 06:03:21 PM 41.0667 -74.3167 201° Southwest 234 269 4,000  Level New York TRACON
Wed 06:04:15 PM 41.0167 -74.3500 207° Southwest 229 264 4,000 -105 Level New York TRACON
Wed 06:05:15 PM 40.9500 -74.3833 201° Southwest 232 267 3,800 -500 Descending New York TRACON
Wed 06:06:15 PM 40.9000 -74.4000 194° South 227 261 3,000 -381 Descending New York TRACON
Wed 06:07:21 PM 40.8333 -74.4500 210° Southwest 232 267 3,000  Level New York TRACON
Wed 06:08:15 PM 40.7833 -74.4667 194° South 222 255 3,000 -300 Level New York TRACON
Wed 06:09:21 PM 40.7333 -74.5000 207° Southwest 182 209 2,400 -496 Descending New York TRACON
Wed 06:10:16 PM 40.6833 -74.5167 194° South 196 226 2,000 -211 Descending New York TRACON
Wed 06:11:15 PM 40.6333 -74.5000 166° South 194 223 2,000  Level New York TRACON
Wed 06:12:21 PM 40.6167 -74.4333 108° East 183 211 2,000  Level New York TRACON
Wed 06:13:21 PM 40.6333 -74.3833 66° East 180 207 2,000  Level New York TRACON
Wed 06:14:15 PM 40.6667 -74.3333 49° Northeast 180 207 2,000  Level New York TRACON
Wed 06:15:21 PM 40.7000 -74.2833 49° Northeast 177 204 2,000 -238 Level New York TRACON
Wed 06:16:21 PM 40.7333 -74.2333 49° Northeast 175 201 1,500 -261 Descending New York TRACON
Wed 06:17:16 PM 40.7667 -74.2000 37° Northeast 174 200 1,500 -104 Level New York TRACON
Wed 06:18:16 PM 40.8000 -74.1500 49° Northeast 173 199 1,300 -100 Descending New York TRACON
Wed 06:19:16 PM 40.8000 -74.1000 90° East 165 190 1,300 -300 Level New York TRACON
Wed 06:20:16 PM 40.8167 -74.0667 57° Northeast 102 117 700 -600 Descending New York TRACON

Login

Don't have an account? Register now (free) for customized features, flight alerts, and more!